createdAt,value
2018-03-26T17:52:44.478Z,51.80
2018-03-26T17:55:12.713Z,51.80
2018-03-26T17:57:42.143Z,51.70
2018-03-26T18:00:09.665Z,52.60
2018-03-26T18:02:37.104Z,53.10
2018-03-26T18:05:04.574Z,53.20
2018-03-26T18:07:32.052Z,53.30
2018-03-26T18:09:59.589Z,53.20
2018-03-26T18:12:27.804Z,53.10
2018-03-26T18:14:55.327Z,53.00
2018-03-26T18:17:22.819Z,52.90
2018-03-26T18:19:51.123Z,54.90
2018-03-26T18:22:19.373Z,56.20
2018-03-26T18:24:46.870Z,56.10
2018-03-26T18:27:14.429Z,56.60
2018-03-26T18:29:41.895Z,56.90
2018-03-26T18:32:10.124Z,57.70
2018-03-26T18:34:37.653Z,57.70
2018-03-26T18:37:05.908Z,58.70
2018-03-26T18:39:33.393Z,58.70
2018-03-26T18:42:00.835Z,59.20
2018-03-26T18:44:28.393Z,60.00
2018-03-26T18:46:55.823Z,61.60
2018-03-26T18:49:23.271Z,62.90
2018-03-26T18:51:50.761Z,65.00
2018-03-26T18:54:18.537Z,66.40
2018-03-26T18:56:45.988Z,66.90
2018-03-26T18:59:13.448Z,68.60
2018-03-26T19:01:40.916Z,69.10
2018-03-26T19:04:08.359Z,70.50
2018-03-26T19:06:35.831Z,71.70
2018-03-26T19:09:03.272Z,71.60
2018-03-26T19:11:31.809Z,72.60
2018-03-26T19:13:59.260Z,72.60
2018-03-26T19:16:26.709Z,73.30
2018-03-26T19:18:54.926Z,74.10
2018-03-26T19:21:22.384Z,74.10
2018-03-26T19:23:49.841Z,73.40
2018-03-26T19:26:17.300Z,73.30
2018-03-26T19:28:45.582Z,72.80
2018-03-26T19:31:13.042Z,72.70
2018-03-26T19:33:40.496Z,73.20
2018-03-26T19:36:07.951Z,73.70
2018-03-26T19:38:35.410Z,74.20
2018-03-26T19:41:02.857Z,73.90
2018-03-26T19:43:30.321Z,73.80
2018-03-26T19:45:57.769Z,73.90
2018-03-26T19:48:26.001Z,74.20
2018-03-26T19:50:53.500Z,74.20
2018-03-26T19:53:20.918Z,74.50
2018-03-26T19:55:48.373Z,75.00
2018-03-26T19:58:16.584Z,75.30
2018-03-26T20:00:44.049Z,75.20
2018-03-26T20:03:11.509Z,74.60
2018-03-26T20:05:38.961Z,74.50
2018-03-26T20:08:07.189Z,75.20
2018-03-26T20:10:34.653Z,75.20
2018-03-26T20:13:02.114Z,75.40
2018-03-26T20:15:29.598Z,75.40
2018-03-26T20:17:57.086Z,75.90
2018-03-26T20:20:24.572Z,76.20
2018-03-26T20:22:52.013Z,76.30
2018-03-26T20:25:19.488Z,76.50
2018-03-26T20:27:47.945Z,76.70
2018-03-26T20:30:16.175Z,76.60
2018-03-26T20:32:43.645Z,76.50
2018-03-26T20:35:11.124Z,76.80
2018-03-26T20:37:38.582Z,77.00
2018-03-26T20:40:06.167Z,76.90
2018-03-26T20:42:33.604Z,77.10
2018-03-26T20:45:01.068Z,77.30
2018-03-26T20:47:28.533Z,77.30
2018-03-26T20:49:55.989Z,77.60
2018-03-26T20:52:23.476Z,77.90
2018-03-26T20:54:50.939Z,78.00
2018-03-26T20:57:18.511Z,78.00
2018-03-26T20:59:45.953Z,78.20
2018-03-26T21:02:13.448Z,78.10
2018-03-26T21:04:40.928Z,78.40
2018-03-26T21:07:08.397Z,78.60
2018-03-26T21:09:35.859Z,79.00
2018-03-26T21:12:03.331Z,78.80
2018-03-26T21:14:30.831Z,79.00
2018-03-26T21:16:58.600Z,79.10
2018-03-26T21:19:26.072Z,79.30
2018-03-26T21:21:53.556Z,79.30
2018-03-26T21:24:21.093Z,79.50
2018-03-26T21:26:48.560Z,79.30
2018-03-26T21:29:16.020Z,79.40
2018-03-26T21:31:43.486Z,79.40
2018-03-26T21:34:11.701Z,79.70
2018-03-26T21:36:39.178Z,79.70
2018-03-26T21:39:06.625Z,79.60
2018-03-26T21:41:34.092Z,79.50
2018-03-26T21:44:01.550Z,79.80
2018-03-26T21:46:29.005Z,79.80
2018-03-26T21:48:57.241Z,80.00
2018-03-26T21:51:24.710Z,79.90
2018-03-26T21:53:52.180Z,80.10
2018-03-26T21:56:19.622Z,80.70
2018-03-26T21:58:47.964Z,80.90
2018-03-26T22:01:15.416Z,80.80
2018-03-26T22:03:42.913Z,80.60
2018-03-26T22:06:10.383Z,80.30
2018-03-26T22:08:37.853Z,80.20
2018-03-26T22:11:05.322Z,80.20
2018-03-26T22:13:32.774Z,80.30
2018-03-26T22:16:00.224Z,80.50
2018-03-26T22:18:27.700Z,80.40
2018-03-26T22:20:55.153Z,80.60
2018-03-26T22:23:22.624Z,80.90
2018-03-26T22:25:50.730Z,80.90
2018-03-26T22:28:18.206Z,80.80
2018-03-26T22:30:45.718Z,80.90
2018-03-26T22:33:13.268Z,80.80
2018-03-26T22:35:40.714Z,80.70
2018-03-26T22:38:08.173Z,80.70
2018-03-26T22:40:35.675Z,80.80
2018-03-26T22:43:03.925Z,80.70
2018-03-26T22:45:31.404Z,80.60
2018-03-26T22:47:58.860Z,80.60
2018-03-26T22:50:26.344Z,80.50
2018-03-26T22:52:53.801Z,80.50
2018-03-26T22:55:21.288Z,80.70
2018-03-26T22:57:48.777Z,80.80
2018-03-26T23:00:16.363Z,80.90
2018-03-26T23:02:43.813Z,80.50
2018-03-26T23:05:11.284Z,80.10
2018-03-26T23:07:38.799Z,80.00
2018-03-26T23:10:07.021Z,79.80
2018-03-26T23:12:34.481Z,79.70
2018-03-26T23:15:01.976Z,79.80
2018-03-26T23:17:29.430Z,79.60
2018-03-26T23:19:56.900Z,80.00
2018-03-26T23:22:36.215Z,79.30
2018-03-26T23:25:03.684Z,79.30
2018-03-26T23:27:31.139Z,79.80
2018-03-26T23:29:59.360Z,79.80
2018-03-26T23:32:26.846Z,79.80
2018-03-26T23:34:54.307Z,79.70
2018-03-26T23:37:21.767Z,79.60
2018-03-26T23:39:49.233Z,79.90
2018-03-26T23:42:16.703Z,80.00
2018-03-26T23:44:44.158Z,80.20
2018-03-26T23:47:11.624Z,80.30
2018-03-26T23:49:39.063Z,80.30
2018-03-26T23:52:06.532Z,80.10
2018-03-26T23:54:33.985Z,80.50
2018-03-26T23:57:01.453Z,79.80
2018-03-26T23:59:28.896Z,79.70
